Terminal Aerodrome Forecast
Issued by NWS

Home | Current Version | Previous Version | Text Only | Print | Product List | Glossary On
Versions: 1 2 3 4 5 6 7 8 9 10 11 12 13 14 15 16 17 18 19
065
FTUS46 KHNX 032329
TAFFAT
TAF
KFAT 032329Z 0400/0424 14003KT 5SM HZ SKC
     FM040900 00000KT 3SM BR SKC
      TEMPO 0413/0417 2SM BR
     FM041900 31003KT 6SM BR SKC=

USA.gov is the U.S. government's official web portal to all federal, state and local government web resources and services.